Time;durP1;ratioP1;P1;durP2;ratioP2;P2;SDS_P1;SDS_P2;PMS_P1;PMS_P2;Temp;Humidity;BMP_temperature;BMP_pressure;BME280_temperature;BME280_humidity;BME280_pressure;Samples;Min_cycle;Max_cycle;Signal;HPM_P1;HPM_P2
2023/11/22 00:00:57;;;;;;;28.70;11.03;;;8.30;89.00;;;;;;5033940;28;20412;-71
2023/11/22 00:03:24;;;;;;;16.23;8.47;;;8.10;89.30;;;;;;5033139;28;20203;-72
2023/11/22 00:05:50;;;;;;;22.90;8.90;;;8.20;89.70;;;;;;5033523;28;20189;-72
2023/11/22 00:08:16;;;;;;;15.57;7.83;;;8.20;89.90;;;;;;5033750;28;20428;-72
2023/11/22 00:10:41;;;;;;;9.30;5.30;;;8.10;89.90;;;;;;5034088;28;20434;-70
2023/11/22 00:13:07;;;;;;;7.57;4.03;;;7.70;89.00;;;;;;5033225;28;20866;-72
2023/11/22 00:15:32;;;;;;;8.90;4.93;;;7.50;88.90;;;;;;5035118;28;20675;-71
2023/11/22 00:18:02;;;;;;;8.53;4.40;;;7.20;88.60;;;;;;5017516;28;20178;-71
2023/11/22 00:20:28;;;;;;;7.97;4.30;;;6.90;89.00;;;;;;5035151;28;20185;-71
2023/11/22 00:22:53;;;;;;;8.50;4.10;;;6.70;89.50;;;;;;5034449;28;20423;-70
2023/11/22 00:25:19;;;;;;;11.33;4.80;;;6.70;89.70;;;;;;5034530;28;20240;-71
2023/11/22 00:27:46;;;;;;;13.93;4.40;;;6.70;90.00;;;;;;5034461;28;20181;-70
2023/11/22 00:30:12;;;;;;;9.07;4.83;;;6.70;90.00;;;;;;5015612;28;20209;-69
2023/11/22 00:32:40;;;;;;;11.33;4.93;;;6.50;90.10;;;;;;5033177;28;20458;-70
2023/11/22 00:35:07;;;;;;;8.70;4.37;;;6.50;90.20;;;;;;5033228;28;20469;-69
2023/11/22 00:37:34;;;;;;;10.30;4.20;;;6.50;90.30;;;;;;5015511;28;20436;-71
2023/11/22 00:40:10;;;;;;;10.43;5.47;;;6.50;90.30;;;;;;5033314;28;20416;-71
2023/11/22 00:42:41;;;;;;;6.57;3.93;;;6.40;90.30;;;;;;5015641;28;20463;-69
2023/11/22 00:45:07;;;;;;;9.70;5.50;;;6.40;90.20;;;;;;5033091;28;20436;-72
2023/11/22 00:47:33;;;;;;;9.00;4.97;;;6.50;90.30;;;;;;5033751;28;20440;-72
2023/11/22 00:49:59;;;;;;;10.07;4.83;;;6.40;90.10;;;;;;5033386;28;20408;-71
2023/11/22 00:52:25;;;;;;;9.90;5.37;;;6.20;89.70;;;;;;5033517;28;20198;-71
2023/11/22 00:54:50;;;;;;;12.10;5.73;;;6.20;89.90;;;;;;5032849;28;20523;-72
2023/11/22 00:57:16;;;;;;;9.90;5.87;;;6.10;89.90;;;;;;5032973;28;20200;-70
2023/11/22 00:59:42;;;;;;;12.43;5.90;;;6.10;90.00;;;;;;5032952;28;20666;-70
2023/11/22 01:02:08;;;;;;;14.47;6.77;;;6.10;90.00;;;;;;5032811;28;20422;-71
2023/11/22 01:04:36;;;;;;;11.20;5.77;;;6.00;90.00;;;;;;5032301;28;20197;-70
2023/11/22 01:07:04;;;;;;;11.63;6.43;;;6.10;90.00;;;;;;5033946;28;20416;-71
2023/11/22 01:09:30;;;;;;;8.63;5.20;;;6.00;89.70;;;;;;5015981;28;20424;-72
2023/11/22 01:11:56;;;;;;;11.60;5.53;;;6.00;89.20;;;;;;5032730;28;20448;-72
2023/11/22 01:14:21;;;;;;;12.53;6.33;;;6.00;89.00;;;;;;5033534;28;20447;-72
2023/11/22 01:16:48;;;;;;;11.63;5.80;;;5.90;89.00;;;;;;5033310;28;20668;-72
2023/11/22 01:19:13;;;;;;;9.33;5.40;;;5.90;88.70;;;;;;5033739;28;20173;-71
2023/11/22 01:21:39;;;;;;;13.47;6.43;;;5.90;88.40;;;;;;5033337;28;20420;-71
2023/11/22 01:24:05;;;;;;;9.63;5.10;;;5.90;88.30;;;;;;5033360;28;20208;-70
2023/11/22 01:26:30;;;;;;;9.33;5.33;;;5.90;88.00;;;;;;5033893;28;20185;-72
2023/11/22 01:28:56;;;;;;;11.80;5.73;;;5.80;87.60;;;;;;5032795;28;20458;-72
2023/11/22 01:31:22;;;;;;;10.67;5.33;;;5.80;87.60;;;;;;5032329;28;20181;-72
2023/11/22 01:33:48;;;;;;;10.20;5.63;;;5.70;87.70;;;;;;5032532;28;20213;-72
2023/11/22 01:36:15;;;;;;;9.77;5.70;;;5.70;87.70;;;;;;5032773;28;20415;-72
2023/11/22 01:38:41;;;;;;;10.70;5.30;;;5.70;87.70;;;;;;5032380;28;20186;-70
2023/11/22 01:41:07;;;;;;;12.33;6.10;;;5.70;87.60;;;;;;5032189;28;20467;-70
2023/11/22 01:43:32;;;;;;;14.67;6.20;;;5.60;87.60;;;;;;5032083;28;20462;-69
2023/11/22 01:45:58;;;;;;;8.90;4.73;;;5.60;87.80;;;;;;5034021;28;20420;-71
2023/11/22 01:48:25;;;;;;;11.80;5.53;;;5.50;88.00;;;;;;5032389;28;20181;-71
2023/11/22 01:50:51;;;;;;;10.43;5.60;;;5.50;88.10;;;;;;5032403;28;20421;-72
2023/11/22 01:53:18;;;;;;;9.30;5.00;;;5.60;88.10;;;;;;5031622;28;20455;-70
2023/11/22 01:55:46;;;;;;;10.97;5.70;;;5.60;88.00;;;;;;5032538;28;20496;-72
2023/11/22 01:58:12;;;;;;;10.37;5.63;;;5.50;87.70;;;;;;5031873;28;20999;-71
2023/11/22 02:00:50;;;;;;;9.27;5.03;;;5.50;87.80;;;;;;5032416;28;20451;-71
2023/11/22 02:03:16;;;;;;;11.70;5.40;;;5.20;87.00;;;;;;5031629;28;20187;-72
2023/11/22 02:05:42;;;;;;;10.60;5.10;;;5.20;87.30;;;;;;5032033;28;20518;-71
2023/11/22 02:08:12;;;;;;;9.33;4.87;;;5.30;87.40;;;;;;5032419;28;20474;-70
2023/11/22 02:10:38;;;;;;;9.10;4.60;;;5.30;87.00;;;;;;5032760;28;20423;-70
2023/11/22 02:13:07;;;;;;;10.03;5.00;;;5.20;86.30;;;;;;5031761;28;20459;-71
2023/11/22 02:15:37;;;;;;;7.20;4.40;;;5.30;86.20;;;;;;5032013;28;20490;-70
2023/11/22 02:18:05;;;;;;;10.10;5.13;;;5.20;85.60;;;;;;5034742;28;20419;-71
2023/11/22 02:20:31;;;;;;;8.03;4.80;;;5.10;85.20;;;;;;5036068;28;20424;-71
2023/11/22 02:22:57;;;;;;;7.37;4.37;;;4.90;85.20;;;;;;5035591;28;20441;-69
2023/11/22 02:25:22;;;;;;;11.10;5.83;;;5.00;85.30;;;;;;5036300;28;20634;-70
2023/11/22 02:27:48;;;;;;;8.80;4.93;;;5.00;85.30;;;;;;5038485;28;20177;-71
2023/11/22 02:30:14;;;;;;;8.27;4.50;;;5.00;85.30;;;;;;5037370;28;20235;-70
2023/11/22 02:32:39;;;;;;;8.60;4.97;;;5.00;85.20;;;;;;5037962;28;20205;-71
2023/11/22 02:35:07;;;;;;;8.23;5.00;;;5.00;85.30;;;;;;5037795;28;20208;-70
2023/11/22 02:37:34;;;;;;;6.37;4.27;;;5.00;85.30;;;;;;5019316;28;20192;-70
2023/11/22 02:40:17;;;;;;;9.30;5.20;;;5.00;84.70;;;;;;5036508;28;20766;-71
2023/11/22 02:42:43;;;;;;;7.10;4.13;;;4.80;83.70;;;;;;5034913;28;20760;-71
2023/11/22 02:45:09;;;;;;;7.73;4.67;;;4.80;83.30;;;;;;5037183;28;20454;-71
2023/11/22 02:47:35;;;;;;;9.00;4.70;;;4.80;83.10;;;;;;5036438;28;20231;-69
2023/11/22 02:50:05;;;;;;;6.53;4.23;;;4.90;83.40;;;;;;5036037;28;20495;-71
2023/11/22 02:52:31;;;;;;;9.43;5.20;;;4.80;82.50;;;;;;5035444;28;20213;-71
2023/11/22 02:54:56;;;;;;;8.97;4.50;;;4.80;82.80;;;;;;5034956;28;20818;-70
2023/11/22 02:57:22;;;;;;;8.77;4.63;;;4.70;82.50;;;;;;5035299;28;20440;-70
2023/11/22 02:59:47;;;;;;;7.77;4.33;;;4.80;83.10;;;;;;5035682;28;20600;-70
2023/11/22 03:02:14;;;;;;;8.10;4.40;;;4.80;83.10;;;;;;5035466;28;20212;-71
2023/11/22 03:04:40;;;;;;;8.77;5.00;;;4.80;83.30;;;;;;5037352;28;20282;-70
2023/11/22 03:07:06;;;;;;;7.83;4.47;;;4.80;83.10;;;;;;5020107;28;20416;-71
2023/11/22 03:09:32;;;;;;;8.60;4.57;;;4.80;83.10;;;;;;5035484;28;20653;-69
2023/11/22 03:11:58;;;;;;;8.80;4.77;;;4.70;82.50;;;;;;5035108;28;20232;-71
2023/11/22 03:14:23;;;;;;;6.70;4.50;;;4.80;82.50;;;;;;5034364;28;20539;-69
2023/11/22 03:16:49;;;;;;;10.03;5.10;;;4.80;82.70;;;;;;5035001;28;20235;-71
2023/11/22 03:19:14;;;;;;;9.27;5.20;;;4.60;81.90;;;;;;5034845;28;20188;-71
2023/11/22 03:21:41;;;;;;;7.67;4.53;;;4.50;82.20;;;;;;5034808;28;20246;-71
2023/11/22 03:24:08;;;;;;;10.93;5.27;;;4.40;81.90;;;;;;5034806;28;20259;-71
2023/11/22 03:26:34;;;;;;;10.10;4.80;;;4.40;82.50;;;;;;5035890;28;20453;-70
2023/11/22 03:29:00;;;;;;;9.60;4.63;;;4.40;82.40;;;;;;5035344;28;20432;-71
2023/11/22 03:31:26;;;;;;;12.17;5.07;;;4.40;82.40;;;;;;5034971;28;20408;-73
2023/11/22 03:33:52;;;;;;;10.53;5.00;;;4.40;82.50;;;;;;5034031;28;20968;-70
2023/11/22 03:36:18;;;;;;;10.33;5.20;;;4.40;82.20;;;;;;5034898;28;20499;-69
2023/11/22 03:38:44;;;;;;;8.87;5.10;;;4.50;82.20;;;;;;5036421;28;20282;-71
2023/11/22 03:41:10;;;;;;;7.77;4.47;;;4.50;81.90;;;;;;5018810;28;20412;-71
2023/11/22 03:43:36;;;;;;;8.00;4.60;;;4.60;81.70;;;;;;5036221;28;20432;-69
2023/11/22 03:46:02;;;;;;;8.43;4.40;;;4.60;80.60;;;;;;5037802;28;20193;-72
2023/11/22 03:48:28;;;;;;;7.80;4.40;;;4.60;80.50;;;;;;5037378;28;20408;-70
2023/11/22 03:50:54;;;;;;;6.90;4.57;;;4.60;80.20;;;;;;5037574;28;20251;-70
2023/11/22 03:53:22;;;;;;;9.70;4.93;;;4.70;80.50;;;;;;5036894;28;20498;-71
2023/11/22 03:55:49;;;;;;;9.27;4.33;;;4.80;80.90;;;;;;5036723;28;20177;-71
2023/11/22 03:58:15;;;;;;;7.30;4.37;;;4.90;80.60;;;;;;5035922;28;20444;-73
2023/11/22 04:00:41;;;;;;;9.23;4.73;;;4.80;80.00;;;;;;5036525;28;20438;-71
2023/11/22 04:03:07;;;;;;;9.47;4.77;;;4.70;80.30;;;;;;5034185;28;20193;-70
2023/11/22 04:05:32;;;;;;;10.20;4.93;;;4.60;80.60;;;;;;5034423;28;20558;-70
2023/11/22 04:07:58;;;;;;;8.80;5.07;;;4.60;80.60;;;;;;5034144;28;20821;-70
2023/11/22 04:10:24;;;;;;;8.70;5.20;;;4.60;80.90;;;;;;5033937;28;20187;-70
2023/11/22 04:12:49;;;;;;;10.87;5.20;;;4.60;80.60;;;;;;5033238;28;20304;-71
2023/11/22 04:15:15;;;;;;;12.33;5.33;;;4.60;80.90;;;;;;5033736;28;20232;-70
2023/11/22 04:17:41;;;;;;;9.43;4.80;;;4.60;81.20;;;;;;5034123;28;20182;-70
2023/11/22 04:20:14;;;;;;;11.00;4.70;;;4.70;81.50;;;;;;5034039;28;20703;-72
2023/11/22 04:22:41;;;;;;;9.10;4.60;;;4.80;81.70;;;;;;5034383;28;21001;-71
2023/11/22 04:25:08;;;;;;;10.40;5.73;;;4.90;81.70;;;;;;5033098;28;20436;-72
2023/11/22 04:27:34;;;;;;;10.20;5.30;;;4.90;81.70;;;;;;5033585;28;20420;-71
2023/11/22 04:30:00;;;;;;;11.70;5.37;;;4.80;80.90;;;;;;5015752;28;20428;-71
2023/11/22 04:32:25;;;;;;;11.77;5.40;;;4.80;81.10;;;;;;5033733;28;20464;-72
2023/11/22 04:34:51;;;;;;;10.97;5.30;;;4.70;81.10;;;;;;5033492;28;20452;-70
2023/11/22 04:37:17;;;;;;;10.70;5.93;;;4.50;81.20;;;;;;5033299;28;20213;-71
2023/11/22 04:39:42;;;;;;;8.87;5.00;;;4.50;81.80;;;;;;5033133;28;20185;-69
2023/11/22 04:42:08;;;;;;;8.37;5.10;;;4.50;81.70;;;;;;5033242;28;20254;-71
2023/11/22 04:44:33;;;;;;;11.83;6.27;;;4.60;81.90;;;;;;5032823;28;20203;-71
2023/11/22 04:46:59;;;;;;;10.37;5.10;;;4.70;81.70;;;;;;5033394;28;20185;-70
2023/11/22 04:49:25;;;;;;;11.80;5.67;;;4.70;81.80;;;;;;5033245;28;20181;-71
2023/11/22 04:51:51;;;;;;;9.50;5.33;;;4.80;81.70;;;;;;5032980;28;20829;-69
2023/11/22 04:54:16;;;;;;;11.97;5.57;;;4.80;81.70;;;;;;5032520;28;20538;-71
2023/11/22 04:56:42;;;;;;;9.70;5.60;;;4.80;81.70;;;;;;5032987;28;20186;-71
2023/11/22 04:59:08;;;;;;;7.90;5.40;;;4.80;81.50;;;;;;5032876;28;20416;-71
2023/11/22 05:01:34;;;;;;;8.67;5.00;;;4.80;81.70;;;;;;5033879;28;20466;-70
2023/11/22 05:04:00;;;;;;;9.60;5.30;;;4.90;81.50;;;;;;5035870;28;20684;-71
2023/11/22 05:06:27;;;;;;;7.80;4.83;;;4.80;81.20;;;;;;5038256;28;20185;-72
2023/11/22 05:08:53;;;;;;;8.63;4.47;;;4.80;80.80;;;;;;5017064;28;20200;-69
2023/11/22 05:11:19;;;;;;;10.90;5.73;;;4.80;80.90;;;;;;5034629;28;20411;-70
2023/11/22 05:13:44;;;;;;;12.77;5.03;;;4.80;80.90;;;;;;5033591;28;21164;-70
2023/11/22 05:16:10;;;;;;;9.40;4.90;;;4.80;80.60;;;;;;5033376;28;20714;-71
2023/11/22 05:18:36;;;;;;;9.37;4.70;;;4.70;78.90;;;;;;5033144;28;20607;-71
2023/11/22 05:21:03;;;;;;;10.13;5.10;;;4.70;78.40;;;;;;5032754;28;20605;-70
2023/11/22 05:23:29;;;;;;;9.53;5.40;;;4.70;79.60;;;;;;5032138;28;20208;-72
2023/11/22 05:25:56;;;;;;;11.30;5.70;;;4.70;80.20;;;;;;5032720;28;20440;-72
2023/11/22 05:28:22;;;;;;;8.93;5.30;;;4.70;80.50;;;;;;5033001;28;20419;-70
2023/11/22 05:30:48;;;;;;;10.43;5.80;;;4.60;80.60;;;;;;5033702;28;20436;-70
2023/11/22 05:33:13;;;;;;;10.67;5.03;;;4.70;81.10;;;;;;5032932;28;20907;-70
2023/11/22 05:35:40;;;;;;;10.83;4.83;;;4.80;81.10;;;;;;5033011;28;20173;-70
2023/11/22 05:38:06;;;;;;;9.00;5.17;;;4.70;80.80;;;;;;5034432;28;20185;-72
2023/11/22 05:40:33;;;;;;;10.80;4.50;;;4.60;80.50;;;;;;5034028;28;20869;-69
2023/11/22 05:42:58;;;;;;;8.67;4.80;;;4.60;80.80;;;;;;5032237;28;20420;-70
2023/11/22 05:45:25;;;;;;;8.20;4.77;;;4.60;80.90;;;;;;5034864;28;20440;-71
2023/11/22 05:47:51;;;;;;;7.83;4.87;;;4.50;80.60;;;;;;5033487;28;20653;-71
2023/11/22 05:50:17;;;;;;;9.33;4.80;;;4.30;80.60;;;;;;5034085;28;20407;-72
2023/11/22 05:52:44;;;;;;;9.37;5.50;;;4.20;81.10;;;;;;5034061;28;20464;-72
2023/11/22 05:55:10;;;;;;;9.60;5.27;;;4.10;81.40;;;;;;5032170;28;20204;-70
2023/11/22 05:57:36;;;;;;;7.80;4.43;;;4.20;81.70;;;;;;5032113;28;20444;-70
2023/11/22 06:00:02;;;;;;;7.63;4.60;;;4.20;81.70;;;;;;5032551;28;20982;-72
2023/11/22 06:02:28;;;;;;;8.27;5.00;;;4.20;81.40;;;;;;5032292;28;20204;-73
2023/11/22 06:04:54;;;;;;;10.60;5.40;;;4.10;81.80;;;;;;5032200;28;20428;-70
2023/11/22 06:07:19;;;;;;;9.80;5.47;;;4.10;81.80;;;;;;5032650;28;20708;-70
2023/11/22 06:09:45;;;;;;;9.87;5.17;;;4.10;81.80;;;;;;5032742;28;20173;-71
2023/11/22 06:12:10;;;;;;;8.97;5.07;;;4.10;81.90;;;;;;5033518;28;20209;-72
2023/11/22 06:14:36;;;;;;;10.47;4.97;;;4.20;82.10;;;;;;5038836;28;20208;-72
2023/11/22 06:17:03;;;;;;;7.90;4.83;;;4.20;81.90;;;;;;5036542;28;20270;-69
2023/11/22 06:19:28;;;;;;;10.70;5.80;;;4.20;82.20;;;;;;5034921;28;20232;-73
2023/11/22 06:21:54;;;;;;;9.83;5.17;;;4.30;82.10;;;;;;5033516;28;20404;-72
2023/11/22 06:24:20;;;;;;;10.03;4.63;;;4.30;82.10;;;;;;5031543;28;20292;-71
2023/11/22 06:26:50;;;;;;;6.30;4.20;;;4.20;81.90;;;;;;5031874;28;20185;-70
2023/11/22 06:29:16;;;;;;;11.53;5.23;;;4.20;81.90;;;;;;5031529;28;20174;-73
2023/11/22 06:31:41;;;;;;;9.70;5.50;;;4.20;81.90;;;;;;5032040;28;20487;-72
2023/11/22 06:34:07;;;;;;;8.73;4.23;;;4.20;82.40;;;;;;5031537;28;20551;-70
2023/11/22 06:36:32;;;;;;;10.53;4.53;;;4.20;82.20;;;;;;5033627;28;20212;-71
2023/11/22 06:38:59;;;;;;;8.90;4.73;;;4.10;81.90;;;;;;5036197;28;20181;-71
2023/11/22 06:41:24;;;;;;;8.83;4.87;;;3.90;81.70;;;;;;5039562;28;20272;-72
2023/11/22 06:43:50;;;;;;;9.37;4.30;;;4.00;82.20;;;;;;5031555;28;20459;-72
2023/11/22 06:46:16;;;;;;;7.40;4.50;;;4.00;81.50;;;;;;5031834;28;20177;-72
2023/11/22 06:48:45;;;;;;;8.13;4.20;;;4.00;81.20;;;;;;5014866;28;20184;-70
2023/11/22 06:51:10;;;;;;;8.43;4.40;;;3.90;80.90;;;;;;5031815;28;20419;-70
2023/11/22 06:53:36;;;;;;;9.00;4.97;;;3.90;80.80;;;;;;5031552;28;20808;-71
2023/11/22 06:56:03;;;;;;;10.53;5.90;;;3.90;80.30;;;;;;5032034;28;20211;-72
2023/11/22 06:58:29;;;;;;;8.97;5.07;;;3.90;80.80;;;;;;5032647;28;20208;-71
2023/11/22 07:00:55;;;;;;;9.53;4.90;;;3.90;80.80;;;;;;5034000;28;20414;-72
2023/11/22 07:03:21;;;;;;;10.27;5.07;;;3.90;80.90;;;;;;5036633;28;20410;-70
2023/11/22 07:05:46;;;;;;;7.70;4.40;;;3.90;81.10;;;;;;5034996;28;20174;-70
2023/11/22 07:08:12;;;;;;;8.17;4.60;;;3.90;80.90;;;;;;5035232;28;20408;-71
2023/11/22 07:10:38;;;;;;;13.37;4.63;;;4.00;80.90;;;;;;5035409;28;20180;-71
2023/11/22 07:13:03;;;;;;;7.20;4.40;;;4.00;80.80;;;;;;5017674;28;20217;-70
2023/11/22 07:15:32;;;;;;;9.13;4.30;;;4.00;80.80;;;;;;5037085;28;20183;-72
2023/11/22 07:17:58;;;;;;;10.30;4.60;;;3.90;80.30;;;;;;5036145;28;20554;-72
2023/11/22 07:20:24;;;;;;;9.50;4.00;;;3.90;79.70;;;;;;5035672;28;20431;-71
2023/11/22 07:22:55;;;;;;;5.87;3.77;;;3.70;79.20;;;;;;5035372;28;20424;-69
2023/11/22 07:25:24;;;;;;;6.37;4.10;;;3.70;79.30;;;;;;5037051;28;20197;-71
2023/11/22 07:27:51;;;;;;;7.37;4.50;;;3.70;79.00;;;;;;5038394;28;20499;-70
2023/11/22 07:30:19;;;;;;;6.77;3.83;;;3.70;79.20;;;;;;5039871;28;20479;-70
2023/11/22 07:32:45;;;;;;;6.47;3.67;;;3.60;78.90;;;;;;5039766;28;20471;-71
2023/11/22 07:35:15;;;;;;;8.13;3.43;;;3.70;79.00;;;;;;5036700;28;20443;-72
2023/11/22 07:37:44;;;;;;;5.27;3.37;;;3.60;79.00;;;;;;5036876;28;20440;-72
2023/11/22 07:40:11;;;;;;;6.50;3.30;;;3.60;78.70;;;;;;5035377;28;20772;-71
2023/11/22 07:42:37;;;;;;;11.60;4.30;;;3.70;78.40;;;;;;5034978;28;20528;-70
2023/11/22 07:45:03;;;;;;;7.43;3.23;;;3.70;78.30;;;;;;5034814;28;20967;-70
2023/11/22 07:47:29;;;;;;;9.83;4.43;;;3.60;77.60;;;;;;5035005;28;20181;-72
2023/11/22 07:49:57;;;;;;;7.50;3.37;;;3.50;78.00;;;;;;5034662;28;20411;-71
2023/11/22 07:52:29;;;;;;;7.50;3.90;;;3.40;77.80;;;;;;5034410;28;20617;-71
2023/11/22 07:54:56;;;;;;;7.38;3.42;;;3.40;78.00;;;;;;5034103;28;20585;-72
2023/11/22 07:57:22;;;;;;;9.83;4.70;;;3.40;78.10;;;;;;5034765;28;20580;-72
2023/11/22 07:59:49;;;;;;;6.00;3.73;;;3.40;78.30;;;;;;5035239;28;20439;-70
2023/11/22 08:02:18;;;;;;;8.03;3.67;;;3.40;78.00;;;;;;5034411;28;20419;-72
2023/11/22 08:04:44;;;;;;;6.47;4.00;;;3.50;78.30;;;;;;5033230;28;20801;-72
2023/11/22 08:07:14;;;;;;;5.90;3.80;;;3.40;78.30;;;;;;5033840;28;20177;-71
2023/11/22 08:09:41;;;;;;;5.67;3.60;;;3.50;78.30;;;;;;5034223;28;20420;-71
2023/11/22 08:12:07;;;;;;;6.35;3.50;;;3.60;78.40;;;;;;5034407;28;20875;-72
2023/11/22 08:14:33;;;;;;;6.53;3.60;;;3.70;78.30;;;;;;5034248;28;20602;-73
2023/11/22 08:16:59;;;;;;;8.90;3.90;;;3.70;77.80;;;;;;5041646;28;20424;-71
2023/11/22 08:19:24;;;;;;;8.43;3.93;;;3.70;77.80;;;;;;5034640;28;20412;-71
2023/11/22 08:21:50;;;;;;;8.90;4.17;;;3.70;77.60;;;;;;5033456;28;20212;-73
2023/11/22 08:24:18;;;;;;;7.63;3.80;;;3.50;77.30;;;;;;5033683;28;20190;-73
2023/11/22 08:26:44;;;;;;;4.83;3.43;;;3.30;77.80;;;;;;5034656;28;20488;-72
2023/11/22 08:29:11;;;;;;;7.50;4.50;;;3.40;78.30;;;;;;5035579;28;20416;-71
2023/11/22 08:31:37;;;;;;;8.10;4.07;;;3.30;78.10;;;;;;5035687;28;20189;-71
2023/11/22 08:34:06;;;;;;;6.43;3.53;;;3.30;78.10;;;;;;5036718;28;20480;-72
2023/11/22 08:36:33;;;;;;;7.45;4.20;;;3.20;78.40;;;;;;5037317;28;20190;-72
2023/11/22 08:39:00;;;;;;;5.93;3.57;;;3.20;78.70;;;;;;5034847;28;20612;-71
2023/11/22 08:41:27;;;;;;;8.10;4.13;;;3.50;79.00;;;;;;5033637;28;20459;-72
2023/11/22 08:43:52;;;;;;;7.47;4.00;;;3.70;79.20;;;;;;5033518;28;20424;-71
2023/11/22 08:46:18;;;;;;;6.57;3.73;;;3.70;78.00;;;;;;5033743;28;20498;-72
2023/11/22 08:48:43;;;;;;;5.77;3.50;;;3.70;77.40;;;;;;5033339;28;20185;-72
2023/11/22 08:51:10;;;;;;;8.73;4.37;;;3.50;76.40;;;;;;5032931;28;20181;-71
2023/11/22 08:53:35;;;;;;;6.40;3.80;;;3.40;76.70;;;;;;5032534;28;20283;-71
2023/11/22 08:56:05;;;;;;;8.10;4.50;;;3.50;77.30;;;;;;5033534;28;20420;-71
2023/11/22 08:58:30;;;;;;;8.60;4.20;;;3.30;77.00;;;;;;5033932;28;20696;-70
2023/11/22 09:00:57;;;;;;;9.93;4.47;;;3.00;77.70;;;;;;5032950;28;20404;-71
2023/11/22 09:03:23;;;;;;;7.43;4.65;;;3.10;78.30;;;;;;5032526;28;20201;-73
2023/11/22 09:05:49;;;;;;;7.53;4.37;;;3.00;78.00;;;;;;5033571;28;20182;-71
2023/11/22 09:08:15;;;;;;;9.20;4.70;;;3.20;78.60;;;;;;5033809;28;20450;-76
2023/11/22 09:10:42;;;;;;;8.43;4.33;;;3.20;78.70;;;;;;5036969;28;20427;-73
2023/11/22 09:13:08;;;;;;;11.57;5.53;;;3.30;78.40;;;;;;5035275;28;20304;-73
2023/11/22 09:15:35;;;;;;;19.27;5.10;;;3.30;78.30;;;;;;5035524;28;20537;-72
2023/11/22 09:18:01;;;;;;;11.20;4.25;;;3.30;78.40;;;;;;5028216;28;20449;-71
2023/11/22 09:20:26;;;;;;;11.50;4.30;;;3.40;78.10;;;;;;5031292;28;20189;-72
2023/11/22 09:22:54;;;;;;;7.97;4.10;;;3.30;77.30;;;;;;5037264;28;20515;-72
2023/11/22 09:25:21;;;;;;;7.20;4.55;;;3.40;77.40;;;;;;5023943;28;20216;-70
2023/11/22 09:27:51;;;;;;;9.33;4.87;;;3.20;77.40;;;;;;5026333;28;20595;-69
2023/11/22 09:30:34;;;;;;;14.63;6.00;;;3.00;77.80;;;;;;5025251;28;20487;-71
2023/11/22 09:33:04;;;;;;;10.80;5.37;;;2.90;78.30;;;;;;5010485;28;20496;-71
2023/11/22 09:35:34;;;;;;;8.63;4.68;;;2.90;78.60;;;;;;5025068;28;20526;-72
2023/11/22 09:38:06;;;;;;;8.25;4.20;;;2.80;78.60;;;;;;5028017;28;20310;-72
2023/11/22 09:40:33;;;;;;;11.10;5.30;;;2.80;78.60;;;;;;5031674;28;20271;-72
2023/11/22 09:51:17;;;;;;;8.93;4.60;;;3.10;78.90;;;;;;5290635;23;20286;-78
2023/11/22 09:53:42;;;;;;;12.70;5.88;;;3.10;78.60;;;;;;5018089;28;20519;-77
2023/11/22 09:56:09;;;;;;;8.37;5.00;;;2.90;78.10;;;;;;5012990;28;20183;-77
2023/11/22 09:58:40;;;;;;;10.07;4.90;;;2.90;78.70;;;;;;5015285;28;20624;-78
2023/11/22 10:01:07;;;;;;;10.05;5.35;;;3.10;79.00;;;;;;5030211;28;20205;-78
2023/11/22 10:03:33;;;;;;;16.20;5.30;;;3.10;78.90;;;;;;5037536;28;20193;-77
2023/11/22 10:05:59;;;;;;;11.03;5.43;;;3.20;78.90;;;;;;5029203;28;20502;-77
2023/11/22 10:08:31;;;;;;;14.40;5.83;;;3.10;78.40;;;;;;5034128;28;20207;-77
2023/11/22 10:10:58;;;;;;;11.55;5.70;;;3.00;78.40;;;;;;5026340;28;20465;-77
2023/11/22 10:13:23;;;;;;;11.10;5.40;;;3.00;78.40;;;;;;5028025;28;20213;-77
2023/11/22 10:15:50;;;;;;;11.60;6.10;;;3.10;78.70;;;;;;5032504;28;20409;-77
2023/11/22 10:18:19;;;;;;;11.50;5.20;;;3.10;78.60;;;;;;5024487;28;20212;-78
2023/11/22 10:20:47;;;;;;;9.77;4.80;;;3.00;78.40;;;;;;5030794;28;20539;-77
2023/11/22 10:23:14;;;;;;;10.03;5.30;;;3.10;78.60;;;;;;5031851;28;20515;-77
2023/11/22 10:25:51;;;;;;;10.97;5.23;;;3.00;78.30;;;;;;5041978;28;20439;-77
2023/11/22 10:28:18;;;;;;;9.15;5.25;;;3.10;78.40;;;;;;5030473;28;20931;-77
2023/11/22 10:30:47;;;;;;;12.20;5.57;;;3.20;78.40;;;;;;5030435;28;20220;-77
2023/11/22 10:33:14;;;;;;;11.83;6.17;;;3.30;78.40;;;;;;5032882;28;20460;-78
2023/11/22 10:35:51;;;;;;;10.20;5.60;;;3.30;78.30;;;;;;5029678;28;20861;-77
2023/11/22 10:38:20;;;;;;;10.43;5.70;;;3.20;78.40;;;;;;5043813;28;20503;-78
2023/11/22 10:40:47;;;;;;;12.87;6.50;;;3.30;78.60;;;;;;5034519;28;20464;-77
2023/11/22 10:43:17;;;;;;;13.25;5.97;;;3.10;78.30;;;;;;5037987;28;20427;-78
2023/11/22 10:45:51;;;;;;;14.37;6.63;;;3.20;78.60;;;;;;5041565;28;20193;-77
2023/11/22 10:48:16;;;;;;;13.37;6.60;;;3.40;78.60;;;;;;5039698;28;20421;-78
2023/11/22 10:50:44;;;;;;;12.73;6.43;;;3.30;78.40;;;;;;5034234;28;20456;-78
2023/11/22 10:53:15;;;;;;;10.40;5.93;;;3.40;78.60;;;;;;5041139;28;20419;-78
2023/11/22 10:55:48;;;;;;;10.33;5.63;;;3.50;78.30;;;;;;5035656;28;20471;-76
2023/11/22 10:58:15;;;;;;;12.50;6.30;;;3.50;78.10;;;;;;5039058;28;20570;-77
2023/11/22 11:00:41;;;;;;;12.40;5.67;;;3.70;78.30;;;;;;5025423;28;20464;-78
2023/11/22 11:03:24;;;;;;;9.07;5.70;;;3.70;77.60;;;;;;5027823;28;20465;-77
2023/11/22 11:05:58;;;;;;;15.43;6.63;;;3.80;77.40;;;;;;5026699;28;20423;-78
2023/11/22 11:08:28;;;;;;;13.67;6.90;;;3.70;77.30;;;;;;5023028;28;20424;-77
2023/11/22 11:10:56;;;;;;;12.50;6.60;;;3.60;77.40;;;;;;5032777;28;20455;-78
2023/11/22 11:13:21;;;;;;;10.40;6.17;;;3.70;77.60;;;;;;5027052;28;20471;-78
2023/11/22 11:15:47;;;;;;;10.00;5.27;;;3.70;77.30;;;;;;5019938;28;20498;-78
2023/11/22 11:18:15;;;;;;;13.13;6.20;;;3.60;77.30;;;;;;5024595;28;20186;-79
2023/11/22 11:20:55;;;;;;;11.37;5.87;;;3.70;77.60;;;;;;5023879;28;20522;-80
2023/11/22 11:23:23;;;;;;;16.53;7.70;;;3.80;77.40;;;;;;5022291;28;20452;-78
2023/11/22 11:26:15;;;;;;;14.97;7.40;;;3.90;77.30;;;;;;5021185;28;20425;-79
2023/11/22 11:28:49;;;;;;;11.10;6.53;;;3.70;77.10;;;;;;5022891;28;20444;-78
2023/11/22 11:31:16;;;;;;;10.63;6.00;;;3.50;77.30;;;;;;5032872;28;20490;-78
2023/11/22 11:33:48;;;;;;;12.03;7.13;;;3.60;77.70;;;;;;5028908;28;20480;-78
2023/11/22 11:36:24;;;;;;;13.93;6.17;;;3.50;77.60;;;;;;5025111;28;20881;-79
2023/11/22 11:38:54;;;;;;;14.90;6.90;;;3.50;77.80;;;;;;5022123;28;20423;-78
2023/11/22 11:41:27;;;;;;;13.03;7.30;;;3.60;77.80;;;;;;5022305;28;20915;-77
2023/11/22 11:43:53;;;;;;;11.40;6.60;;;3.60;77.80;;;;;;5026788;28;20822;-80
2023/11/22 11:46:20;;;;;;;12.93;6.43;;;3.60;77.80;;;;;;5030385;28;20484;-80
2023/11/22 11:48:50;;;;;;;12.53;7.30;;;3.60;77.80;;;;;;5039074;28;20527;-81
2023/11/22 11:51:28;;;;;;;12.20;6.67;;;3.70;78.30;;;;;;5036328;28;20678;-81
2023/11/22 11:53:55;;;;;;;11.90;6.97;;;3.60;78.70;;;;;;5032995;28;20463;-79
2023/11/22 11:56:21;;;;;;;15.83;7.77;;;3.80;78.60;;;;;;5033648;28;20428;-82
2023/11/22 11:58:49;;;;;;;15.47;7.00;;;3.70;78.00;;;;;;5036243;28;20439;-82
2023/11/22 12:01:22;;;;;;;15.10;7.37;;;3.60;78.30;;;;;;5030945;28;20447;-82
2023/11/22 12:03:49;;;;;;;14.40;7.20;;;3.70;78.30;;;;;;5029381;28;20463;-82
2023/11/22 12:06:20;;;;;;;14.70;7.30;;;3.90;78.30;;;;;;5034878;28;20465;-81
2023/11/22 12:08:47;;;;;;;13.87;6.97;;;3.90;77.70;;;;;;5033776;28;20811;-80
2023/11/22 12:11:17;;;;;;;12.73;6.97;;;3.70;77.30;;;;;;5025182;28;20459;-78
2023/11/22 12:13:46;;;;;;;11.07;6.53;;;3.70;77.60;;;;;;5026014;28;20467;-77
2023/11/22 12:16:16;;;;;;;13.70;7.10;;;3.50;77.30;;;;;;5033872;28;20412;-77
2023/11/22 12:18:49;;;;;;;11.77;6.57;;;3.50;78.00;;;;;;5025706;28;20429;-78
2023/11/22 12:21:17;;;;;;;12.13;7.70;;;3.50;77.40;;;;;;5027787;28;20466;-78
2023/11/22 12:23:45;;;;;;;11.23;6.43;;;3.50;77.60;;;;;;5026709;28;20433;-77
2023/11/22 12:26:15;;;;;;;12.37;6.90;;;3.60;78.00;;;;;;5032238;28;20494;-77
2023/11/22 12:28:42;;;;;;;14.07;7.70;;;3.60;77.60;;;;;;5025606;28;20791;-77
2023/11/22 12:31:12;;;;;;;10.97;6.20;;;3.70;77.60;;;;;;5022128;28;20483;-78
2023/11/22 12:33:40;;;;;;;14.00;7.10;;;3.80;77.60;;;;;;5025951;28;20465;-77
2023/11/22 12:36:09;;;;;;;11.90;6.23;;;3.90;77.40;;;;;;5031896;28;20408;-79
2023/11/22 12:38:35;;;;;;;13.13;6.53;;;3.80;76.20;;;;;;5020467;28;20475;-78
2023/11/22 12:41:03;;;;;;;13.00;7.10;;;3.70;76.20;;;;;;5026498;28;20456;-77
2023/11/22 12:43:29;;;;;;;10.83;6.70;;;3.60;76.80;;;;;;5030872;28;20474;-78
2023/11/22 12:46:16;;;;;;;16.07;7.03;;;3.50;77.30;;;;;;5027189;28;20462;-78
2023/11/22 12:48:42;;;;;;;16.10;7.83;;;3.50;77.60;;;;;;5025960;28;20430;-77
2023/11/22 12:51:18;;;;;;;14.20;6.70;;;3.60;77.80;;;;;;5021769;28;20590;-79
2023/11/22 12:53:47;;;;;;;16.60;7.03;;;3.70;77.30;;;;;;5023192;28;20472;-77
2023/11/22 12:56:13;;;;;;;12.37;6.53;;;3.70;76.70;;;;;;5023106;28;20420;-78
2023/11/22 12:58:38;;;;;;;12.53;6.97;;;3.60;76.70;;;;;;5023773;28;20502;-77
2023/11/22 13:01:04;;;;;;;18.00;7.40;;;3.50;76.70;;;;;;5022454;28;20311;-78